sensor_id;sensor_type;location;lat;lon;timestamp;temperature;humidity
15426;DHT22;7812;50.072;7.036;2023-11-18T00:01:08;7.20;99.90
15426;DHT22;7812;50.072;7.036;2023-11-18T00:03:34;7.20;99.90
15426;DHT22;7812;50.072;7.036;2023-11-18T00:06:00;7.10;99.90
15426;DHT22;7812;50.072;7.036;2023-11-18T00:08:26;6.90;99.90
15426;DHT22;7812;50.072;7.036;2023-11-18T00:10:51;6.60;99.90
15426;DHT22;7812;50.072;7.036;2023-11-18T00:13:17;6.50;99.90
15426;DHT22;7812;50.072;7.036;2023-11-18T00:15:42;6.40;99.90
15426;DHT22;7812;50.072;7.036;2023-11-18T00:18:11;6.40;99.90
15426;DHT22;7812;50.072;7.036;2023-11-18T00:20:37;6.50;99.90
15426;DHT22;7812;50.072;7.036;2023-11-18T00:23:02;6.70;99.90
15426;DHT22;7812;50.072;7.036;2023-11-18T00:25:30;6.60;99.90
15426;DHT22;7812;50.072;7.036;2023-11-18T00:27:55;6.60;99.90
15426;DHT22;7812;50.072;7.036;2023-11-18T00:30:21;6.70;99.90
15426;DHT22;7812;50.072;7.036;2023-11-18T00:32:47;6.60;99.90
15426;DHT22;7812;50.072;7.036;2023-11-18T00:35:13;6.50;99.90
15426;DHT22;7812;50.072;7.036;2023-11-18T00:37:40;6.50;99.90
15426;DHT22;7812;50.072;7.036;2023-11-18T00:40:07;6.30;99.90
15426;DHT22;7812;50.072;7.036;2023-11-18T00:42:34;6.30;99.90
15426;DHT22;7812;50.072;7.036;2023-11-18T00:44:59;6.40;99.90
15426;DHT22;7812;50.072;7.036;2023-11-18T00:47:25;6.50;99.90
15426;DHT22;7812;50.072;7.036;2023-11-18T00:49:50;6.50;99.90
15426;DHT22;7812;50.072;7.036;2023-11-18T00:52:18;6.40;99.90
15426;DHT22;7812;50.072;7.036;2023-11-18T00:54:44;6.50;99.90
15426;DHT22;7812;50.072;7.036;2023-11-18T00:57:10;6.40;99.90
15426;DHT22;7812;50.072;7.036;2023-11-18T00:59:36;6.50;99.90
15426;DHT22;7812;50.072;7.036;2023-11-18T01:02:02;6.40;99.90
15426;DHT22;7812;50.072;7.036;2023-11-18T01:04:28;6.40;99.90
15426;DHT22;7812;50.072;7.036;2023-11-18T01:07:00;6.50;99.90
15426;DHT22;7812;50.072;7.036;2023-11-18T01:09:26;6.70;99.90
15426;DHT22;7812;50.072;7.036;2023-11-18T01:11:52;6.50;99.90
15426;DHT22;7812;50.072;7.036;2023-11-18T01:14:18;6.40;99.90
15426;DHT22;7812;50.072;7.036;2023-11-18T01:16:44;6.60;99.90
15426;DHT22;7812;50.072;7.036;2023-11-18T01:19:11;6.90;99.90
15426;DHT22;7812;50.072;7.036;2023-11-18T01:21:36;7.10;99.90
15426;DHT22;7812;50.072;7.036;2023-11-18T01:24:02;7.10;99.90
15426;DHT22;7812;50.072;7.036;2023-11-18T01:26:28;6.80;99.90
15426;DHT22;7812;50.072;7.036;2023-11-18T01:28:53;6.90;99.90
15426;DHT22;7812;50.072;7.036;2023-11-18T01:31:21;6.80;99.90
15426;DHT22;7812;50.072;7.036;2023-11-18T01:33:47;7.00;99.90
15426;DHT22;7812;50.072;7.036;2023-11-18T01:36:15;6.70;99.90
15426;DHT22;7812;50.072;7.036;2023-11-18T01:38:43;6.60;99.90
15426;DHT22;7812;50.072;7.036;2023-11-18T01:41:08;6.60;99.90
15426;DHT22;7812;50.072;7.036;2023-11-18T01:43:34;6.90;99.90
15426;DHT22;7812;50.072;7.036;2023-11-18T01:46:03;7.00;99.90
15426;DHT22;7812;50.072;7.036;2023-11-18T01:48:30;6.80;99.90
15426;DHT22;7812;50.072;7.036;2023-11-18T01:50:57;6.70;99.90
15426;DHT22;7812;50.072;7.036;2023-11-18T01:53:26;6.90;99.90
15426;DHT22;7812;50.072;7.036;2023-11-18T01:55:52;7.00;99.90
15426;DHT22;7812;50.072;7.036;2023-11-18T01:58:19;7.10;99.90
15426;DHT22;7812;50.072;7.036;2023-11-18T02:00:45;6.10;99.90
15426;DHT22;7812;50.072;7.036;2023-11-18T02:03:12;6.20;99.90
15426;DHT22;7812;50.072;7.036;2023-11-18T02:05:38;6.50;99.90
15426;DHT22;7812;50.072;7.036;2023-11-18T02:08:05;6.60;99.90
15426;DHT22;7812;50.072;7.036;2023-11-18T02:10:33;6.60;99.90
15426;DHT22;7812;50.072;7.036;2023-11-18T02:15:35;6.50;99.90
15426;DHT22;7812;50.072;7.036;2023-11-18T02:18:03;6.40;99.90
15426;DHT22;7812;50.072;7.036;2023-11-18T02:20:32;6.50;99.90
15426;DHT22;7812;50.072;7.036;2023-11-18T02:23:00;6.60;99.90
15426;DHT22;7812;50.072;7.036;2023-11-18T02:25:27;6.50;99.90
15426;DHT22;7812;50.072;7.036;2023-11-18T02:27:54;6.90;99.90
15426;DHT22;7812;50.072;7.036;2023-11-18T02:30:20;7.20;99.90
15426;DHT22;7812;50.072;7.036;2023-11-18T02:33:54;7.40;99.90
15426;DHT22;7812;50.072;7.036;2023-11-18T02:36:05;6.80;99.90
15426;DHT22;7812;50.072;7.036;2023-11-18T02:38:35;6.30;99.90
15426;DHT22;7812;50.072;7.036;2023-11-18T02:41:05;6.20;99.90
15426;DHT22;7812;50.072;7.036;2023-11-18T02:43:32;6.30;99.90
15426;DHT22;7812;50.072;7.036;2023-11-18T02:46:00;6.60;99.90
15426;DHT22;7812;50.072;7.036;2023-11-18T02:48:27;6.50;99.90
15426;DHT22;7812;50.072;7.036;2023-11-18T02:50:53;6.60;99.90
15426;DHT22;7812;50.072;7.036;2023-11-18T02:53:19;6.70;99.90
15426;DHT22;7812;50.072;7.036;2023-11-18T02:55:45;7.00;99.90
15426;DHT22;7812;50.072;7.036;2023-11-18T02:58:11;6.50;99.90
15426;DHT22;7812;50.072;7.036;2023-11-18T03:00:37;6.60;99.90
15426;DHT22;7812;50.072;7.036;2023-11-18T03:03:04;6.90;99.90
15426;DHT22;7812;50.072;7.036;2023-11-18T03:05:30;6.90;99.90
15426;DHT22;7812;50.072;7.036;2023-11-18T03:07:57;6.30;99.90
15426;DHT22;7812;50.072;7.036;2023-11-18T03:10:23;6.40;99.90
15426;DHT22;7812;50.072;7.036;2023-11-18T03:12:53;6.50;99.90
15426;DHT22;7812;50.072;7.036;2023-11-18T03:15:20;6.80;99.90
15426;DHT22;7812;50.072;7.036;2023-11-18T03:17:47;7.10;99.90
15426;DHT22;7812;50.072;7.036;2023-11-18T03:20:15;7.30;99.90
15426;DHT22;7812;50.072;7.036;2023-11-18T03:22:51;7.40;99.90
15426;DHT22;7812;50.072;7.036;2023-11-18T03:25:18;7.30;99.90
15426;DHT22;7812;50.072;7.036;2023-11-18T03:27:45;7.50;99.90
15426;DHT22;7812;50.072;7.036;2023-11-18T03:30:11;7.40;99.90
15426;DHT22;7812;50.072;7.036;2023-11-18T03:32:37;6.70;99.90
15426;DHT22;7812;50.072;7.036;2023-11-18T03:35:04;6.70;99.90
15426;DHT22;7812;50.072;7.036;2023-11-18T03:37:37;6.90;99.90
15426;DHT22;7812;50.072;7.036;2023-11-18T03:40:11;6.80;99.90
15426;DHT22;7812;50.072;7.036;2023-11-18T03:42:38;6.90;99.90
15426;DHT22;7812;50.072;7.036;2023-11-18T03:45:07;6.80;99.90
15426;DHT22;7812;50.072;7.036;2023-11-18T03:47:35;7.00;99.90
15426;DHT22;7812;50.072;7.036;2023-11-18T03:50:01;7.20;99.90
15426;DHT22;7812;50.072;7.036;2023-11-18T03:52:26;6.90;99.90
15426;DHT22;7812;50.072;7.036;2023-11-18T03:54:53;6.90;99.90
15426;DHT22;7812;50.072;7.036;2023-11-18T03:57:20;7.00;99.90
15426;DHT22;7812;50.072;7.036;2023-11-18T03:59:46;7.10;99.90
15426;DHT22;7812;50.072;7.036;2023-11-18T04:02:12;7.20;99.90
15426;DHT22;7812;50.072;7.036;2023-11-18T04:04:38;7.10;99.90
15426;DHT22;7812;50.072;7.036;2023-11-18T04:07:04;7.00;99.90
15426;DHT22;7812;50.072;7.036;2023-11-18T04:09:30;7.00;99.90
15426;DHT22;7812;50.072;7.036;2023-11-18T04:11:56;7.00;99.90
15426;DHT22;7812;50.072;7.036;2023-11-18T04:14:22;7.00;99.90
15426;DHT22;7812;50.072;7.036;2023-11-18T04:16:50;6.90;99.90
15426;DHT22;7812;50.072;7.036;2023-11-18T04:19:16;6.80;99.90
15426;DHT22;7812;50.072;7.036;2023-11-18T04:21:41;6.90;99.90
15426;DHT22;7812;50.072;7.036;2023-11-18T04:24:07;7.00;99.90
15426;DHT22;7812;50.072;7.036;2023-11-18T04:26:33;7.10;99.90
15426;DHT22;7812;50.072;7.036;2023-11-18T04:28:59;6.90;99.90
15426;DHT22;7812;50.072;7.036;2023-11-18T04:31:25;7.00;99.90
15426;DHT22;7812;50.072;7.036;2023-11-18T04:33:50;7.30;99.90
15426;DHT22;7812;50.072;7.036;2023-11-18T04:36:16;7.60;99.90
15426;DHT22;7812;50.072;7.036;2023-11-18T04:38:42;7.30;99.90
15426;DHT22;7812;50.072;7.036;2023-11-18T04:41:11;7.20;99.90
15426;DHT22;7812;50.072;7.036;2023-11-18T04:43:36;7.20;99.90
15426;DHT22;7812;50.072;7.036;2023-11-18T04:46:02;7.30;99.90
15426;DHT22;7812;50.072;7.036;2023-11-18T04:48:28;7.40;99.90
15426;DHT22;7812;50.072;7.036;2023-11-18T04:50:53;7.50;99.90
15426;DHT22;7812;50.072;7.036;2023-11-18T04:53:19;7.70;99.90
15426;DHT22;7812;50.072;7.036;2023-11-18T04:55:45;7.70;99.90
15426;DHT22;7812;50.072;7.036;2023-11-18T04:58:10;7.70;99.90
15426;DHT22;7812;50.072;7.036;2023-11-18T05:00:36;7.80;99.90
15426;DHT22;7812;50.072;7.036;2023-11-18T05:03:04;7.40;99.90
15426;DHT22;7812;50.072;7.036;2023-11-18T05:05:31;6.80;99.90
15426;DHT22;7812;50.072;7.036;2023-11-18T05:07:57;6.70;99.90
15426;DHT22;7812;50.072;7.036;2023-11-18T05:10:22;6.80;99.90
15426;DHT22;7812;50.072;7.036;2023-11-18T05:12:49;7.10;99.90
15426;DHT22;7812;50.072;7.036;2023-11-18T05:15:21;7.40;99.90
15426;DHT22;7812;50.072;7.036;2023-11-18T05:17:53;7.60;99.90
15426;DHT22;7812;50.072;7.036;2023-11-18T05:20:19;7.60;99.90
15426;DHT22;7812;50.072;7.036;2023-11-18T05:22:45;7.40;99.90
15426;DHT22;7812;50.072;7.036;2023-11-18T05:25:11;7.60;99.90
15426;DHT22;7812;50.072;7.036;2023-11-18T05:27:37;7.80;99.90
15426;DHT22;7812;50.072;7.036;2023-11-18T05:30:03;7.90;99.90
15426;DHT22;7812;50.072;7.036;2023-11-18T05:32:30;7.80;99.90
15426;DHT22;7812;50.072;7.036;2023-11-18T05:34:56;7.80;99.90
15426;DHT22;7812;50.072;7.036;2023-11-18T05:37:23;8.00;99.90
15426;DHT22;7812;50.072;7.036;2023-11-18T05:39:50;7.90;99.90
15426;DHT22;7812;50.072;7.036;2023-11-18T05:42:27;7.40;99.90
15426;DHT22;7812;50.072;7.036;2023-11-18T05:44:52;7.50;99.90
15426;DHT22;7812;50.072;7.036;2023-11-18T05:47:25;7.70;99.90
15426;DHT22;7812;50.072;7.036;2023-11-18T05:49:52;7.50;99.90
15426;DHT22;7812;50.072;7.036;2023-11-18T05:52:18;7.70;99.90
15426;DHT22;7812;50.072;7.036;2023-11-18T05:54:46;7.80;99.90
15426;DHT22;7812;50.072;7.036;2023-11-18T05:57:14;8.00;99.90
15426;DHT22;7812;50.072;7.036;2023-11-18T05:59:40;8.10;99.90
15426;DHT22;7812;50.072;7.036;2023-11-18T06:02:05;8.20;99.90
15426;DHT22;7812;50.072;7.036;2023-11-18T06:04:31;8.30;99.90
15426;DHT22;7812;50.072;7.036;2023-11-18T06:06:57;8.30;99.90
15426;DHT22;7812;50.072;7.036;2023-11-18T06:09:22;7.70;99.90
15426;DHT22;7812;50.072;7.036;2023-11-18T06:11:51;7.30;99.90
15426;DHT22;7812;50.072;7.036;2023-11-18T06:14:19;7.20;99.90
15426;DHT22;7812;50.072;7.036;2023-11-18T06:16:44;7.20;99.90
15426;DHT22;7812;50.072;7.036;2023-11-18T06:19:10;7.20;99.90
15426;DHT22;7812;50.072;7.036;2023-11-18T06:21:36;7.40;99.90
15426;DHT22;7812;50.072;7.036;2023-11-18T06:24:03;7.30;99.90
15426;DHT22;7812;50.072;7.036;2023-11-18T06:26:32;7.50;99.90
15426;DHT22;7812;50.072;7.036;2023-11-18T06:28:59;7.60;99.90
15426;DHT22;7812;50.072;7.036;2023-11-18T06:31:25;7.80;99.90
15426;DHT22;7812;50.072;7.036;2023-11-18T06:33:51;8.00;99.90
15426;DHT22;7812;50.072;7.036;2023-11-18T06:36:17;8.10;99.90
15426;DHT22;7812;50.072;7.036;2023-11-18T06:38:43;8.00;99.90
15426;DHT22;7812;50.072;7.036;2023-11-18T06:41:09;8.20;99.90
15426;DHT22;7812;50.072;7.036;2023-11-18T06:43:40;8.20;99.90
15426;DHT22;7812;50.072;7.036;2023-11-18T06:46:28;8.20;99.90
15426;DHT22;7812;50.072;7.036;2023-11-18T06:49:05;8.10;99.90
15426;DHT22;7812;50.072;7.036;2023-11-18T06:51:33;7.90;99.90
15426;DHT22;7812;50.072;7.036;2023-11-18T06:54:01;8.00;99.90
15426;DHT22;7812;50.072;7.036;2023-11-18T06:56:34;8.20;99.90
15426;DHT22;7812;50.072;7.036;2023-11-18T06:59:01;8.00;99.90
15426;DHT22;7812;50.072;7.036;2023-11-18T07:01:27;7.90;99.90
15426;DHT22;7812;50.072;7.036;2023-11-18T07:03:56;8.10;99.90
15426;DHT22;7812;50.072;7.036;2023-11-18T07:06:21;8.30;99.90
15426;DHT22;7812;50.072;7.036;2023-11-18T07:08:49;8.10;99.90
15426;DHT22;7812;50.072;7.036;2023-11-18T07:11:16;8.00;99.90
15426;DHT22;7812;50.072;7.036;2023-11-18T07:13:43;7.60;99.90
15426;DHT22;7812;50.072;7.036;2023-11-18T07:16:08;7.60;99.90
15426;DHT22;7812;50.072;7.036;2023-11-18T07:18:37;7.60;99.90
15426;DHT22;7812;50.072;7.036;2023-11-18T07:21:04;7.80;99.90
15426;DHT22;7812;50.072;7.036;2023-11-18T07:23:33;7.90;99.90
15426;DHT22;7812;50.072;7.036;2023-11-18T07:26:00;7.50;99.90
15426;DHT22;7812;50.072;7.036;2023-11-18T07:28:26;7.50;99.90
15426;DHT22;7812;50.072;7.036;2023-11-18T07:30:53;7.40;99.90
15426;DHT22;7812;50.072;7.036;2023-11-18T07:33:19;7.50;99.90
15426;DHT22;7812;50.072;7.036;2023-11-18T07:35:48;7.60;99.90
15426;DHT22;7812;50.072;7.036;2023-11-18T07:38:16;7.60;99.90
15426;DHT22;7812;50.072;7.036;2023-11-18T07:40:45;7.50;99.90
15426;DHT22;7812;50.072;7.036;2023-11-18T07:43:12;7.60;99.90
15426;DHT22;7812;50.072;7.036;2023-11-18T07:45:39;7.60;99.90
15426;DHT22;7812;50.072;7.036;2023-11-18T07:48:11;7.70;99.90
15426;DHT22;7812;50.072;7.036;2023-11-18T07:50:43;7.90;99.90
15426;DHT22;7812;50.072;7.036;2023-11-18T07:53:11;7.80;99.90
15426;DHT22;7812;50.072;7.036;2023-11-18T07:55:37;7.80;99.90
15426;DHT22;7812;50.072;7.036;2023-11-18T07:58:14;7.90;99.90
15426;DHT22;7812;50.072;7.036;2023-11-18T08:00:41;7.90;99.90
15426;DHT22;7812;50.072;7.036;2023-11-18T08:03:11;7.80;99.90
15426;DHT22;7812;50.072;7.036;2023-11-18T08:05:41;7.50;99.90
15426;DHT22;7812;50.072;7.036;2023-11-18T08:08:09;7.30;99.90
15426;DHT22;7812;50.072;7.036;2023-11-18T08:10:36;7.50;99.90
15426;DHT22;7812;50.072;7.036;2023-11-18T08:13:09;7.70;99.90
15426;DHT22;7812;50.072;7.036;2023-11-18T08:15:38;7.90;99.90
15426;DHT22;7812;50.072;7.036;2023-11-18T08:18:05;8.10;99.90
15426;DHT22;7812;50.072;7.036;2023-11-18T08:20:31;8.20;99.90
15426;DHT22;7812;50.072;7.036;2023-11-18T08:22:58;7.90;99.90
15426;DHT22;7812;50.072;7.036;2023-11-18T08:25:24;7.70;99.90
15426;DHT22;7812;50.072;7.036;2023-11-18T08:27:51;8.00;99.90
15426;DHT22;7812;50.072;7.036;2023-11-18T08:30:17;8.10;99.90
15426;DHT22;7812;50.072;7.036;2023-11-18T08:32:44;8.10;99.90
15426;DHT22;7812;50.072;7.036;2023-11-18T08:35:14;8.20;99.90
15426;DHT22;7812;50.072;7.036;2023-11-18T08:37:43;8.40;99.90
15426;DHT22;7812;50.072;7.036;2023-11-18T08:40:10;8.40;99.90
15426;DHT22;7812;50.072;7.036;2023-11-18T08:42:47;8.50;99.90
15426;DHT22;7812;50.072;7.036;2023-11-18T08:45:20;8.60;99.90
15426;DHT22;7812;50.072;7.036;2023-11-18T08:47:59;8.60;99.90
15426;DHT22;7812;50.072;7.036;2023-11-18T08:50:26;8.50;99.90
15426;DHT22;7812;50.072;7.036;2023-11-18T08:52:52;8.10;99.90
15426;DHT22;7812;50.072;7.036;2023-11-18T08:55:23;8.10;99.90
15426;DHT22;7812;50.072;7.036;2023-11-18T08:57:59;7.80;99.90
15426;DHT22;7812;50.072;7.036;2023-11-18T09:00:32;8.00;99.90
15426;DHT22;7812;50.072;7.036;2023-11-18T09:03:43;8.10;99.90
15426;DHT22;7812;50.072;7.036;2023-11-18T09:06:06;8.40;99.90
15426;DHT22;7812;50.072;7.036;2023-11-18T09:08:46;8.20;99.90
15426;DHT22;7812;50.072;7.036;2023-11-18T09:11:18;8.30;99.90
15426;DHT22;7812;50.072;7.036;2023-11-18T09:13:46;7.80;99.90
15426;DHT22;7812;50.072;7.036;2023-11-18T09:16:19;8.00;99.90
15426;DHT22;7812;50.072;7.036;2023-11-18T09:18:48;7.60;99.90
15426;DHT22;7812;50.072;7.036;2023-11-18T09:21:14;7.50;99.90
15426;DHT22;7812;50.072;7.036;2023-11-18T09:23:43;7.80;99.90
15426;DHT22;7812;50.072;7.036;2023-11-18T09:26:10;8.00;99.90
15426;DHT22;7812;50.072;7.036;2023-11-18T09:28:36;8.30;99.90
15426;DHT22;7812;50.072;7.036;2023-11-18T09:31:03;8.40;99.90
15426;DHT22;7812;50.072;7.036;2023-11-18T09:33:31;8.40;99.90
15426;DHT22;7812;50.072;7.036;2023-11-18T09:36:03;8.40;99.90
15426;DHT22;7812;50.072;7.036;2023-11-18T09:38:34;8.40;99.90
15426;DHT22;7812;50.072;7.036;2023-11-18T09:41:04;8.50;99.90
15426;DHT22;7812;50.072;7.036;2023-11-18T09:43:37;8.60;99.90
15426;DHT22;7812;50.072;7.036;2023-11-18T09:46:17;8.60;99.90
15426;DHT22;7812;50.072;7.036;2023-11-18T09:48:58;8.90;99.90
15426;DHT22;7812;50.072;7.036;2023-11-18T09:51:38;8.80;99.90
15426;DHT22;7812;50.072;7.036;2023-11-18T09:57:07;7.80;99.90
15426;DHT22;7812;50.072;7.036;2023-11-18T10:02:22;8.30;99.90
15426;DHT22;7812;50.072;7.036;2023-11-18T10:04:48;8.10;99.90
15426;DHT22;7812;50.072;7.036;2023-11-18T10:07:17;8.10;99.90
15426;DHT22;7812;50.072;7.036;2023-11-18T10:09:44;8.50;99.90
15426;DHT22;7812;50.072;7.036;2023-11-18T10:12:11;8.20;99.90
15426;DHT22;7812;50.072;7.036;2023-11-18T10:14:42;8.10;99.90
15426;DHT22;7812;50.072;7.036;2023-11-18T10:17:11;8.30;99.90
15426;DHT22;7812;50.072;7.036;2023-11-18T10:19:56;8.40;99.90
15426;DHT22;7812;50.072;7.036;2023-11-18T10:22:28;8.60;99.90
15426;DHT22;7812;50.072;7.036;2023-11-18T10:24:55;8.80;99.90
15426;DHT22;7812;50.072;7.036;2023-11-18T10:27:25;8.80;99.90
15426;DHT22;7812;50.072;7.036;2023-11-18T10:29:57;8.80;99.90
15426;DHT22;7812;50.072;7.036;2023-11-18T10:32:24;8.70;99.90
15426;DHT22;7812;50.072;7.036;2023-11-18T10:34:57;8.80;99.90
15426;DHT22;7812;50.072;7.036;2023-11-18T10:37:23;8.50;99.90
15426;DHT22;7812;50.072;7.036;2023-11-18T10:39:49;8.50;99.90
15426;DHT22;7812;50.072;7.036;2023-11-18T10:42:17;8.70;99.90
15426;DHT22;7812;50.072;7.036;2023-11-18T10:44:59;8.80;99.90
15426;DHT22;7812;50.072;7.036;2023-11-18T10:47:28;8.90;99.90
15426;DHT22;7812;50.072;7.036;2023-11-18T10:49:57;8.80;99.90
15426;DHT22;7812;50.072;7.036;2023-11-18T10:52:27;8.80;99.90
15426;DHT22;7812;50.072;7.036;2023-11-18T10:55:00;8.90;99.90
15426;DHT22;7812;50.072;7.036;2023-11-18T10:57:33;8.80;99.90
15426;DHT22;7812;50.072;7.036;2023-11-18T11:00:02;8.80;99.90
15426;DHT22;7812;50.072;7.036;2023-11-18T11:02:32;8.90;99.90
15426;DHT22;7812;50.072;7.036;2023-11-18T11:05:28;9.10;99.90
15426;DHT22;7812;50.072;7.036;2023-11-18T11:07:58;9.30;99.90
15426;DHT22;7812;50.072;7.036;2023-11-18T11:10:25;9.10;99.90
15426;DHT22;7812;50.072;7.036;2023-11-18T11:12:55;8.40;99.90
15426;DHT22;7812;50.072;7.036;2023-11-18T11:15:29;8.50;99.90
15426;DHT22;7812;50.072;7.036;2023-11-18T11:18:01;8.50;99.90
15426;DHT22;7812;50.072;7.036;2023-11-18T11:20:37;8.40;99.90
15426;DHT22;7812;50.072;7.036;2023-11-18T11:26:23;9.10;99.90
15426;DHT22;7812;50.072;7.036;2023-11-18T11:32:21;8.40;99.90
15426;DHT22;7812;50.072;7.036;2023-11-18T11:34:55;8.00;99.90
15426;DHT22;7812;50.072;7.036;2023-11-18T11:37:25;8.10;99.90
15426;DHT22;7812;50.072;7.036;2023-11-18T11:39:56;8.40;99.90
15426;DHT22;7812;50.072;7.036;2023-11-18T11:42:23;8.60;99.90
15426;DHT22;7812;50.072;7.036;2023-11-18T11:44:49;8.60;99.90
15426;DHT22;7812;50.072;7.036;2023-11-18T11:47:18;8.60;99.90
15426;DHT22;7812;50.072;7.036;2023-11-18T11:49:54;8.40;99.90
15426;DHT22;7812;50.072;7.036;2023-11-18T11:52:29;8.70;99.90
15426;DHT22;7812;50.072;7.036;2023-11-18T11:55:07;9.10;99.90
15426;DHT22;7812;50.072;7.036;2023-11-18T11:57:41;9.30;99.90
15426;DHT22;7812;50.072;7.036;2023-11-18T12:00:10;9.50;99.90
15426;DHT22;7812;50.072;7.036;2023-11-18T12:02:50;9.70;99.90
15426;DHT22;7812;50.072;7.036;2023-11-18T12:05:17;9.80;99.90
15426;DHT22;7812;50.072;7.036;2023-11-18T12:07:51;9.80;99.90
15426;DHT22;7812;50.072;7.036;2023-11-18T12:10:17;9.70;99.90
15426;DHT22;7812;50.072;7.036;2023-11-18T12:12:47;9.90;99.90
15426;DHT22;7812;50.072;7.036;2023-11-18T12:15:13;10.00;99.90
15426;DHT22;7812;50.072;7.036;2023-11-18T12:20:41;10.10;99.90
15426;DHT22;7812;50.072;7.036;2023-11-18T12:23:08;10.20;99.90
15426;DHT22;7812;50.072;7.036;2023-11-18T12:25:41;10.20;99.90
15426;DHT22;7812;50.072;7.036;2023-11-18T12:28:08;10.30;99.90
15426;DHT22;7812;50.072;7.036;2023-11-18T12:33:02;10.30;99.90
15426;DHT22;7812;50.072;7.036;2023-11-18T12:46:52;9.20;99.90
15426;DHT22;7812;50.072;7.036;2023-11-18T12:49:22;9.20;99.90
15426;DHT22;7812;50.072;7.036;2023-11-18T12:51:55;9.30;99.90
15426;DHT22;7812;50.072;7.036;2023-11-18T12:54:23;9.70;99.90
15426;DHT22;7812;50.072;7.036;2023-11-18T12:56:54;9.80;99.90
15426;DHT22;7812;50.072;7.036;2023-11-18T12:59:20;9.60;99.90
15426;DHT22;7812;50.072;7.036;2023-11-18T13:01:52;9.70;99.90
15426;DHT22;7812;50.072;7.036;2023-11-18T13:04:27;9.80;99.90
15426;DHT22;7812;50.072;7.036;2023-11-18T13:06:53;9.70;99.90
15426;DHT22;7812;50.072;7.036;2023-11-18T13:09:21;9.40;99.90
15426;DHT22;7812;50.072;7.036;2023-11-18T13:12:02;9.70;99.90
15426;DHT22;7812;50.072;7.036;2023-11-18T13:14:35;9.70;99.90
15426;DHT22;7812;50.072;7.036;2023-11-18T13:17:09;9.70;99.90
15426;DHT22;7812;50.072;7.036;2023-11-18T13:19:36;9.90;99.90
15426;DHT22;7812;50.072;7.036;2023-11-18T13:22:04;9.80;99.90
15426;DHT22;7812;50.072;7.036;2023-11-18T13:24:37;9.90;99.90
15426;DHT22;7812;50.072;7.036;2023-11-18T13:27:05;9.80;99.90
15426;DHT22;7812;50.072;7.036;2023-11-18T13:29:36;9.90;99.90
15426;DHT22;7812;50.072;7.036;2023-11-18T13:32:01;9.90;99.90
15426;DHT22;7812;50.072;7.036;2023-11-18T13:34:30;9.80;99.90
15426;DHT22;7812;50.072;7.036;2023-11-18T13:36:58;9.70;99.90
15426;DHT22;7812;50.072;7.036;2023-11-18T13:39:25;9.40;99.90
15426;DHT22;7812;50.072;7.036;2023-11-18T13:41:54;9.00;99.90
15426;DHT22;7812;50.072;7.036;2023-11-18T13:44:36;9.20;99.90
15426;DHT22;7812;50.072;7.036;2023-11-18T13:47:04;9.40;99.90
15426;DHT22;7812;50.072;7.036;2023-11-18T13:49:37;9.50;99.90
15426;DHT22;7812;50.072;7.036;2023-11-18T13:52:06;9.70;99.90
15426;DHT22;7812;50.072;7.036;2023-11-18T13:54:35;9.80;99.90
15426;DHT22;7812;50.072;7.036;2023-11-18T13:57:02;9.70;99.90
15426;DHT22;7812;50.072;7.036;2023-11-18T13:59:34;9.60;99.90
15426;DHT22;7812;50.072;7.036;2023-11-18T14:02:00;9.40;99.90
15426;DHT22;7812;50.072;7.036;2023-11-18T14:04:30;9.40;99.90
15426;DHT22;7812;50.072;7.036;2023-11-18T14:06:58;9.50;99.90
15426;DHT22;7812;50.072;7.036;2023-11-18T14:09:25;9.40;99.90
15426;DHT22;7812;50.072;7.036;2023-11-18T14:11:52;9.50;99.90
15426;DHT22;7812;50.072;7.036;2023-11-18T14:14:21;9.50;99.90
15426;DHT22;7812;50.072;7.036;2023-11-18T14:16:46;9.50;99.90
15426;DHT22;7812;50.072;7.036;2023-11-18T14:19:12;9.50;99.90
15426;DHT22;7812;50.072;7.036;2023-11-18T14:21:39;9.40;99.90
15426;DHT22;7812;50.072;7.036;2023-11-18T14:24:07;9.20;99.90
15426;DHT22;7812;50.072;7.036;2023-11-18T14:26:33;9.40;99.90
15426;DHT22;7812;50.072;7.036;2023-11-18T14:28:59;9.40;99.90
15426;DHT22;7812;50.072;7.036;2023-11-18T14:31:25;9.40;99.90
15426;DHT22;7812;50.072;7.036;2023-11-18T14:33:51;9.40;99.90
15426;DHT22;7812;50.072;7.036;2023-11-18T14:36:17;9.50;99.90
15426;DHT22;7812;50.072;7.036;2023-11-18T14:38:44;9.40;99.90
15426;DHT22;7812;50.072;7.036;2023-11-18T14:41:13;9.10;99.90
15426;DHT22;7812;50.072;7.036;2023-11-18T14:43:38;9.00;99.90
15426;DHT22;7812;50.072;7.036;2023-11-18T14:46:04;8.90;99.90
15426;DHT22;7812;50.072;7.036;2023-11-18T14:48:30;8.70;99.90
15426;DHT22;7812;50.072;7.036;2023-11-18T14:50:56;8.60;99.90
15426;DHT22;7812;50.072;7.036;2023-11-18T14:53:22;8.70;99.90
15426;DHT22;7812;50.072;7.036;2023-11-18T14:55:48;8.70;99.90
15426;DHT22;7812;50.072;7.036;2023-11-18T14:58:14;8.90;99.90
15426;DHT22;7812;50.072;7.036;2023-11-18T15:00:40;8.50;99.90
15426;DHT22;7812;50.072;7.036;2023-11-18T15:03:08;8.40;99.90
15426;DHT22;7812;50.072;7.036;2023-11-18T15:05:33;8.60;99.90
15426;DHT22;7812;50.072;7.036;2023-11-18T15:08:00;8.80;99.90
15426;DHT22;7812;50.072;7.036;2023-11-18T15:10:27;8.80;99.90
15426;DHT22;7812;50.072;7.036;2023-11-18T15:12:54;8.90;99.90
15426;DHT22;7812;50.072;7.036;2023-11-18T15:15:24;8.60;99.90
15426;DHT22;7812;50.072;7.036;2023-11-18T15:17:57;8.70;99.90
15426;DHT22;7812;50.072;7.036;2023-11-18T15:20:24;8.60;99.90
15426;DHT22;7812;50.072;7.036;2023-11-18T15:22:51;8.50;99.90
15426;DHT22;7812;50.072;7.036;2023-11-18T15:25:16;8.50;99.90
15426;DHT22;7812;50.072;7.036;2023-11-18T15:27:44;8.60;99.90
15426;DHT22;7812;50.072;7.036;2023-11-18T15:30:12;8.30;99.90
15426;DHT22;7812;50.072;7.036;2023-11-18T15:32:42;8.40;99.90
15426;DHT22;7812;50.072;7.036;2023-11-18T15:35:09;8.50;99.90
15426;DHT22;7812;50.072;7.036;2023-11-18T15:37:44;8.60;99.90
15426;DHT22;7812;50.072;7.036;2023-11-18T15:40:15;8.40;99.90
15426;DHT22;7812;50.072;7.036;2023-11-18T15:42:45;8.50;99.90
15426;DHT22;7812;50.072;7.036;2023-11-18T15:45:15;8.70;99.90
15426;DHT22;7812;50.072;7.036;2023-11-18T15:47:42;8.70;99.90
15426;DHT22;7812;50.072;7.036;2023-11-18T15:50:09;8.40;99.90
15426;DHT22;7812;50.072;7.036;2023-11-18T15:52:40;8.50;99.90
15426;DHT22;7812;50.072;7.036;2023-11-18T15:55:07;8.50;99.90
15426;DHT22;7812;50.072;7.036;2023-11-18T15:57:43;8.50;99.90
15426;DHT22;7812;50.072;7.036;2023-11-18T16:00:10;8.50;99.90
15426;DHT22;7812;50.072;7.036;2023-11-18T16:02:46;8.50;99.90
15426;DHT22;7812;50.072;7.036;2023-11-18T16:05:13;8.60;99.90
15426;DHT22;7812;50.072;7.036;2023-11-18T16:07:46;8.80;99.90
15426;DHT22;7812;50.072;7.036;2023-11-18T16:10:14;8.80;99.90
15426;DHT22;7812;50.072;7.036;2023-11-18T16:13:05;8.90;99.90
15426;DHT22;7812;50.072;7.036;2023-11-18T16:15:30;9.00;99.90
15426;DHT22;7812;50.072;7.036;2023-11-18T16:17:58;8.90;99.90
15426;DHT22;7812;50.072;7.036;2023-11-18T16:20:25;8.90;99.90
15426;DHT22;7812;50.072;7.036;2023-11-18T16:22:52;8.70;99.90
15426;DHT22;7812;50.072;7.036;2023-11-18T16:25:22;8.70;99.90
15426;DHT22;7812;50.072;7.036;2023-11-18T16:27:52;8.80;99.90
15426;DHT22;7812;50.072;7.036;2023-11-18T16:30:19;8.90;99.90
15426;DHT22;7812;50.072;7.036;2023-11-18T16:32:49;8.90;99.90
15426;DHT22;7812;50.072;7.036;2023-11-18T16:35:15;8.70;99.90
15426;DHT22;7812;50.072;7.036;2023-11-18T16:37:42;8.40;99.90
15426;DHT22;7812;50.072;7.036;2023-11-18T16:40:09;8.50;99.90
15426;DHT22;7812;50.072;7.036;2023-11-18T16:42:40;8.40;99.90